Currently 61°F in French Valley, California, USA
61°F
83°F / 57°F
4 mph S
0.00"
Wednesday, June 19, 2019 10:16 PM PDT

French Valley, California Weather Summary
Last 36 Hours

Temperature Winds Hourly Humidity Dewpoint
Time Report Norm Report Norm Max Gusts Precip. Rpt. Norm Rpt. Norm Pressure
1Wed 10:16 PM  61.4°F  65°F  4 mph S  2 mph  6 mph  0.00"  96%  77%  60°F  58°F  30.04"
Wed 10:00 PM  61.6°F  66°F  4 mph S  2 mph  10 mph  0.00"  95%  76%  60°F  58°F  30.04"
Wed 09:00 PM  62.4°F  68°F  6 mph S  4 mph  13 mph  0.00"  94%  71%  60°F  58°F  30.03"
Wed 08:00 PM  66.3°F  71°F  7 mph S  6 mph  15 mph  0.00"  84%  63%  61°F  58°F  30.01"
Wed 07:00 PM  69.3°F  76°F  10 mph SE  7 mph  15 mph  0.00"  74%  53%  60°F  57°F  29.99"
Wed 06:00 PM  73.7°F  79°F  7 mph S  8 mph  16 mph  0.00"  64%  46%  60°F  56°F  29.97"
Wed 05:00 PM  75.8°F  81°F  9 mph S  8 mph  20 mph  0.00"  62%  42%  61°F  55°F  29.98"
Wed 04:00 PM  80.3°F  83°F  7 mph SW  9 mph  16 mph  0.00"  55%  39%  62°F  55°F  29.98"
Wed 03:00 PM  81.7°F  84°F  10 mph S  8 mph  14 mph  0.00"  52%  37%  62°F  55°F  29.99"
2Wed 02:04 PM  83.1°F  84°F  4 mph SW  7 mph  12 mph  ----  48%  38%  61°F  55°F  30.00"
Wed 02:00 PM  82.7°F  84°F  3 mph SW  7 mph  16 mph  0.00"  48%  38%  60°F  55°F  30.01"
Wed 01:00 PM  81.5°F  83°F  9 mph S  6 mph  13 mph  0.00"  49%  40%  60°F  55°F  30.03"
Wed 12:00 PM  79.4°F  81°F  3 mph W  5 mph  11 mph  0.00"  55%  43%  62°F  56°F  30.05"
Wed 11:00 AM  76.6°F  78°F  1 mph S  4 mph  9 mph  0.00"  60%  49%  61°F  57°F  30.06"
Wed 10:00 AM  72.9°F  74°F  calm  3 mph  6 mph  0.00"  70%  58%  62°F  57°F  30.07"
Wed 09:00 AM  67.3°F  69°F  1 mph SW  2 mph  6 mph  0.00"  84%  70%  62°F  58°F  30.08"
Wed 08:00 AM  62.2°F  64°F  calm  1 mph  none  0.00"  95%  79%  61°F  58°F  30.08"
Wed 07:00 AM  58.3°F  61°F  calm  1 mph  5 mph  0.00"  97%  86%  57°F  56°F  30.07"
Wed 06:00 AM  57.2°F  59°F  calm  1 mph  4 mph  0.00"  97%  87%  56°F  55°F  30.06"
3Wed 05:53 AM  57.2°F  59°F  2 mph S  1 mph  4 mph  ----  97%  87%  56°F  55°F  30.06"
Wed 05:00 AM  58.0°F  59°F  calm  calm  3 mph  0.00"  96%  87%  57°F  55°F  30.04"
Wed 04:00 AM  58.9°F  60°F  calm  1 mph  none  0.00"  95%  86%  57°F  55°F  30.04"
Wed 03:00 AM  59.5°F  60°F  calm  1 mph  none  0.00"  93%  86%  57°F  56°F  30.04"
Wed 02:00 AM  60.1°F  61°F  calm  1 mph  none  0.00"  93%  85%  58°F  56°F  30.04"
Wed 01:00 AM  60.5°F  62°F  calm  1 mph  1 mph  0.00"  92%  83%  58°F  56°F  30.06"
Wed 12:00 AM  61.1°F  63°F  calm  1 mph  3 mph  0.00"  91%  82%  58°F  57°F  30.06"
Tue 11:00 PM  61.8°F  64°F  3 mph S  1 mph  5 mph  0.00"  90%  79%  59°F  57°F  30.06"
Tue 10:00 PM  62.6°F  66°F  3 mph S  2 mph  7 mph  0.00"  88%  76%  59°F  58°F  30.06"
Tue 09:00 PM  64.0°F  68°F  5 mph S  4 mph  10 mph  0.00"  86%  71%  59°F  58°F  30.04"
Tue 08:00 PM  65.9°F  71°F  8 mph S  6 mph  14 mph  0.00"  82%  63%  60°F  58°F  30.01"
Tue 07:00 PM  70.0°F  75°F  8 mph S  7 mph  13 mph  0.00"  73%  53%  61°F  57°F  29.99"
Tue 06:00 PM  73.4°F  79°F  6 mph S  8 mph  12 mph  0.00"  68%  47%  62°F  56°F  29.97"
Tue 05:00 PM  74.0°F  81°F  5 mph S  8 mph  14 mph  0.00"  67%  42%  62°F  55°F  29.98"
Tue 04:00 PM  74.0°F  83°F  9 mph S  9 mph  16 mph  0.00"  66%  39%  62°F  55°F  29.99"
Tue 03:00 PM  73.2°F  84°F  8 mph S  8 mph  14 mph  0.00"  68%  38%  62°F  55°F  30.01"
Tue 02:00 PM  73.9°F  84°F  7 mph S  7 mph  14 mph  0.00"  67%  38%  62°F  55°F  30.02"
Tue 01:00 PM  73.0°F  83°F  9 mph S  6 mph  13 mph  0.00"  69%  40%  62°F  55°F  30.03"
Tue 12:00 PM  71.3°F  81°F  3 mph S  5 mph  12 mph  0.00"  72%  43%  62°F  56°F  30.05"
Tue 11:00 AM  70.9°F  78°F  4 mph SW  4 mph  9 mph  0.00"  73%  50%  62°F  57°F  30.05"

  1. Current weather data. No green row appears if the current weather data is also the high or low for the current day.
  2. High temperature for the current day.
  3. Low temperature for the current day.

The French Valley, California weather pages are a service of WeatherCurrents. French Valley is located in southwestern Riverside County, California, north of Temecula, east of Murrieta, and south of Winchester. French Valley is bordered by Lake Skinner.
Copyright ©2019  WeatherCurrents. All rights reserved. - Submit questions and comments - Privacy Policy

This page automatically refreshes every 10 minutes.